PST: 22:08 MST: 23:08 CST: 00:08 EST: 01:08 LDN: 06:08 UTC: 05:08
User Agent: CCBot/2.0 (http://commoncrawl.org/faq/)
IP Address: 54.224.127.133
Hostname: ec2-54-224-127-133.compute-1.amazonaws.com

METAR:
KBFI 270453Z 18005KT 10SM FEW200 17/12 A2998 RMK AO2 SLP151 T01670122
KBFI 270353Z VRB03KT 10SM FEW150 SCT200 18/13 A2996 RMK AO2 SLP145 T01830133
KBFI 270253Z 20008KT 100V220 10SM FEW130 SCT200 21/13 A2995 RMK AO2 SLP140 T02110133 53001
KBFI 270153Z VRB03KT 10SM FEW130 SCT200 23/14 A2993 RMK AO2 SLP136 T02280144

TAF:
KBFI 262320Z 2700/2724 22009KT P6SM FEW040 BKN130 BKN200
FM 270600 17008KT P6SM SCT130 BKN200
FM 270900 17006KT P6SM OVC022
FM 272000 25005KT P6SM FEW040 SCT200

KBFI 262104Z 2621/2718 20009KT P6SM FEW035 SCT090 BKN200
FM 270000 24007KT P6SM FEW040 SCT090 SCT200
FM 270900 17005KT P6SM OVC022

KBFI 261857Z 2619/2718 19013KT P6SM FEW026 SCT090 BKN200
FM 262100 21009KT P6SM FEW035 BKN090 BKN200
FM 270000 24007KT P6SM FEW040 SCT090 SCT200
FM 270900 17005KT P6SM OVC022

KBFI 261741Z 2618/2718 21007KT P6SM BKN020 BKN090 BKN200
FM 261900 21009KT P6SM SCT028 BKN090 BKN200
FM 262100 21009KT P6SM FEW035 BKN090 BKN200
FM 270000 24007KT P6SM FEW040 SCT090 SCT200
FM 270900 17005KT P6SM OVC022

KBFI 261416Z 2614/2712 21007KT P6SM OVC015
FM 261800 20008KT P6SM SCT020 BKN200
FM 262100 22006KT P6SM SCT040 BKN200

KBFI 261120Z 2612/2712 17009KT P6SM BKN013 BKN200 TEMPO 2612/2615 SCT015 BKN200
FM 261800 20008KT P6SM SCT020 BKN200
FM 262100 22006KT P6SM SCT040 BKN200

KBFI 260520Z 2606/2706 VRB04KT P6SM FEW060 BKN200
FM 261100 17009KT P6SM OVC013
FM 261800 20008KT P6SM SCT019 BKN200
FM 261900 22006KT P6SM SCT050 BKN200